This is the latest recevied weather packets stored in our database for station/object W4EDL-13. If no packets are shown the sender has not sent any weather packets the latest 10 day(s).
| Time | Temp. | Humidity | Pressure | Rain* | Wind** | Luminosity | Snow |
|---|---|---|---|---|---|---|---|
| 1777946895 | 21.11° C | 71% | 1007.6 hPa | - | - | - | - |
| 1777946295 | 21.11° C | 72% | 1007.6 hPa | - | - | - | - |
| 1777945694 | 21.11° C | 72% | 1007.6 hPa | - | - | - | - |
| 1777945093 | 21.11° C | 72% | 1007.3 hPa | - | - | - | - |
| 1777944492 | 21.11° C | 70% | 1007.3 hPa | - | - | - | - |
| 1777943892 | 21.11° C | 70% | 1007.3 hPa | - | - | - | - |
| 1777943291 | 21.11° C | 70% | 1007.3 hPa | - | - | - | - |
| 1777943291 | 21.11° C | 70% | 1007.3 hPa | - | - | - | - |
| 1777942691 | 21.67° C | 70% | 1006.6 hPa | - | - | - | - |
| 1777942090 | 21.67° C | 70% | 1006.6 hPa | - | - | - | - |
| 1777941490 | 21.67° C | 69% | 1006.6 hPa | - | - | - | - |
| 1777940889 | 21.67° C | 68% | 1006.3 hPa | - | - | - | - |
| 1777940288 | 21.67° C | 67% | 1006.6 hPa | - | - | - | - |
| 1777939688 | 22.22° C | 66% | 1006.3 hPa | - | - | - | - |
| 1777939087 | 22.22° C | 66% | 1006.3 hPa | - | - | - | - |
| 1777938487 | 22.78° C | 64% | 1005.9 hPa | - | - | - | - |
| 1777937886 | 22.78° C | 63% | 1005.9 hPa | - | - | - | - |
| 1777937285 | 22.78° C | 62% | 1005.9 hPa | - | - | - | - |
| 1777936685 | 23.33° C | 62% | 1005.9 hPa | - | - | - | - |
| 1777936084 | 23.89° C | 60% | 1006.3 hPa | - | - | - | - |
| 1777935484 | 23.89° C | 59% | 1005.9 hPa | - | - | - | - |
| 1777934883 | 24.44° C | 58% | 1005.9 hPa | - | - | - | - |
| 1777934282 | 24.44° C | 57% | 1005.9 hPa | - | - | - | - |
| 1777933682 | 25.56° C | 54% | 1005.9 hPa | - | - | - | - |
| 1777933081 | 24.44° C | 58% | 1005.9 hPa | - | - | - | - |
* Rain since midnight (hover to see other rain measurements)
** Current wind speed in m/s (hover to see current wind gust speed)